Time;durP1;ratioP1;P1;durP2;ratioP2;P2;SDS_P1;SDS_P2;PMS_P1;PMS_P2;Temp;Humidity;BMP_temperature;BMP_pressure;BME280_temperature;BME280_humidity;BME280_pressure;Samples;Min_cycle;Max_cycle;Signal;HPM_P1;HPM_P2
2022/07/31 00:01:30;;;;;;;;;;;;;;;27.19;63.16;99165.75;5054460;28;19951;-39
2022/07/31 00:03:55;;;;;;;;;;;;;;;27.09;65.39;99168.47;5056207;28;20009;-39
2022/07/31 00:06:20;;;;;;;;;;;;;;;27.02;66.91;99162.13;5056305;28;19982;-39
2022/07/31 00:08:47;;;;;;;;;;;;;;;27.16;64.87;99159.94;5056759;28;19916;-39
2022/07/31 00:11:13;;;;;;;;;;;;;;;27.69;63.43;99151.16;5054535;28;19929;-39
2022/07/31 00:13:38;;;;;;;;;;;;;;;27.13;66.08;99150.50;5056481;28;20294;-39
2022/07/31 00:16:03;;;;;;;;;;;;;;;27.33;64.06;99151.19;5055549;28;19920;-39
2022/07/31 00:18:28;;;;;;;;;;;;;;;26.53;66.61;99148.38;5056188;28;19920;-39
2022/07/31 00:20:54;;;;;;;;;;;;;;;26.87;65.19;99150.41;5055570;28;20503;-39
2022/07/31 00:23:19;;;;;;;;;;;;;;;26.84;65.47;99146.25;5055877;28;20318;-39
2022/07/31 00:25:44;;;;;;;;;;;;;;;26.94;63.06;99146.19;5055629;28;20346;-38
2022/07/31 00:28:09;;;;;;;;;;;;;;;27.52;61.53;99144.88;5054294;28;19970;-38
2022/07/31 00:30:35;;;;;;;;;;;;;;;27.85;59.05;99139.84;5052980;28;19916;-39
2022/07/31 00:33:00;;;;;;;;;;;;;;;27.84;58.37;99146.94;5055270;28;19966;-39
2022/07/31 00:35:26;;;;;;;;;;;;;;;27.91;59.10;99134.75;5055638;28;19916;-39
2022/07/31 00:37:51;;;;;;;;;;;;;;;27.57;58.97;99136.50;5054062;28;20034;-39
2022/07/31 00:40:16;;;;;;;;;;;;;;;27.51;59.65;99130.84;5055481;28;20069;-39
2022/07/31 00:42:41;;;;;;;;;;;;;;;27.79;60.38;99138.63;5055140;28;20872;-39
2022/07/31 00:45:07;;;;;;;;;;;;;;;27.88;59.44;99136.91;5055729;28;19985;-39
2022/07/31 00:47:32;;;;;;;;;;;;;;;27.81;60.18;99128.72;5054755;28;19924;-39
2022/07/31 00:49:58;;;;;;;;;;;;;;;27.88;61.15;99132.41;5053885;28;19942;-39
2022/07/31 00:52:24;;;;;;;;;;;;;;;27.96;61.18;99126.34;5055725;28;19920;-39
2022/07/31 00:54:49;;;;;;;;;;;;;;;27.93;61.58;99132.78;5052813;28;19921;-39
2022/07/31 00:57:14;;;;;;;;;;;;;;;27.88;62.18;99132.41;5055624;28;19916;-38
2022/07/31 00:59:39;;;;;;;;;;;;;;;27.70;61.65;99127.16;5053788;28;19959;-39
2022/07/31 01:02:07;;;;;;;;;;;;;;;27.39;62.31;99124.13;5053808;28;20336;-39
2022/07/31 01:04:32;;;;;;;;;;;;;;;27.13;64.64;99124.88;5055511;28;20377;-38
2022/07/31 01:06:59;;;;;;;;;;;;;;;27.07;65.47;99122.00;5055042;28;19928;-38
2022/07/31 01:09:24;;;;;;;;;;;;;;;27.42;63.53;99115.91;5053153;28;19974;-39
2022/07/31 01:11:51;;;;;;;;;;;;;;;27.60;63.68;99118.50;5054524;28;20554;-38
2022/07/31 01:14:17;;;;;;;;;;;;;;;27.66;64.02;99119.69;5052067;28;19973;-39
2022/07/31 01:16:44;;;;;;;;;;;;;;;27.40;64.20;99117.84;5053258;28;20678;-39
2022/07/31 01:19:21;;;;;;;;;;;;;;;27.11;63.75;99124.19;5052772;28;19993;-39
2022/07/31 01:22:01;;;;;;;;;;;;;;;26.92;65.59;99121.72;5053842;28;19952;-38
2022/07/31 01:24:32;;;;;;;;;;;;;;;27.27;64.09;99120.06;5053786;28;19951;-38
2022/07/31 01:27:02;;;;;;;;;;;;;;;27.29;65.61;99118.09;5052678;28;20076;-39
2022/07/31 01:29:28;;;;;;;;;;;;;;;27.29;65.62;99118.94;5053158;28;20226;-39
2022/07/31 01:31:59;;;;;;;;;;;;;;;26.88;66.02;99115.06;5051903;28;20026;-39
2022/07/31 01:34:26;;;;;;;;;;;;;;;27.11;67.25;99110.97;5051164;28;20385;-39
2022/07/31 01:36:56;;;;;;;;;;;;;;;27.06;67.55;99115.91;5051715;28;20469;-39
2022/07/31 01:39:21;;;;;;;;;;;;;;;26.93;67.39;99115.44;5051597;28;19917;-38
2022/07/31 01:41:46;;;;;;;;;;;;;;;26.88;67.65;99112.44;5053709;28;19920;-39
2022/07/31 01:44:11;;;;;;;;;;;;;;;26.83;68.14;99112.06;5051899;28;19920;-38
2022/07/31 01:46:37;;;;;;;;;;;;;;;26.74;67.24;99110.31;5051424;28;19920;-39
2022/07/31 01:49:02;;;;;;;;;;;;;;;26.66;66.75;99103.13;5051339;28;19924;-39
2022/07/31 01:51:27;;;;;;;;;;;;;;;26.61;68.03;99115.94;5052161;28;20741;-38
2022/07/31 01:53:53;;;;;;;;;;;;;;;26.59;68.08;99115.28;5052240;28;20504;-38
2022/07/31 01:56:18;;;;;;;;;;;;;;;26.52;67.46;99104.44;5053453;28;19916;-38
2022/07/31 01:58:43;;;;;;;;;;;;;;;25.82;67.15;99107.53;5051378;28;19920;-38
2022/07/31 02:01:09;;;;;;;;;;;;;;;26.43;67.05;99105.31;5051052;28;19916;-39
2022/07/31 02:03:34;;;;;;;;;;;;;;;26.26;65.54;99102.50;5051657;28;21080;-38
2022/07/31 02:06:00;;;;;;;;;;;;;;;26.58;65.41;99105.69;5052087;28;19916;-38
2022/07/31 02:08:25;;;;;;;;;;;;;;;26.64;64.63;99098.00;5051372;28;19920;-38
2022/07/31 02:10:50;;;;;;;;;;;;;;;26.63;65.44;99106.06;5049888;28;19943;-38
2022/07/31 02:13:16;;;;;;;;;;;;;;;26.61;66.28;99098.28;5053405;28;19922;-38
2022/07/31 02:15:41;;;;;;;;;;;;;;;25.73;68.38;99096.97;5052977;28;20536;-39
2022/07/31 02:18:08;;;;;;;;;;;;;;;25.87;66.68;99105.31;5052128;28;19916;-38
2022/07/31 02:20:33;;;;;;;;;;;;;;;25.43;67.58;99109.41;5050575;28;19971;-38
2022/07/31 02:23:00;;;;;;;;;;;;;;;26.24;67.00;99101.81;5053499;28;20016;-38
2022/07/31 02:25:25;;;;;;;;;;;;;;;26.10;66.42;99094.38;5051566;28;19985;-38
2022/07/31 02:27:51;;;;;;;;;;;;;;;26.04;66.08;99092.31;5052853;28;19929;-39
2022/07/31 02:30:16;;;;;;;;;;;;;;;25.69;68.57;99090.34;5049575;28;19920;-38
2022/07/31 02:32:43;;;;;;;;;;;;;;;24.36;73.22;99101.41;5051079;28;19917;-39
2022/07/31 02:35:08;;;;;;;;;;;;;;;24.31;74.91;99099.16;5051526;28;19920;-38
2022/07/31 02:37:34;;;;;;;;;;;;;;;24.34;77.24;99098.06;5051110;28;19920;-38
2022/07/31 02:39:59;;;;;;;;;;;;;;;24.01;77.94;99097.38;5050157;28;19931;-38
2022/07/31 02:42:24;;;;;;;;;;;;;;;25.51;73.18;99079.72;5051687;28;19921;-38
2022/07/31 02:44:49;;;;;;;;;;;;;;;25.54;70.02;99076.78;5051889;28;19962;-39
2022/07/31 02:47:14;;;;;;;;;;;;;;;25.45;72.10;99074.03;5052414;28;19990;-38
2022/07/31 02:49:40;;;;;;;;;;;;;;;25.31;70.83;99071.81;5050228;28;19959;-38
2022/07/31 02:52:05;;;;;;;;;;;;;;;25.19;71.86;99068.53;5052443;28;19960;-38
2022/07/31 02:54:31;;;;;;;;;;;;;;;25.54;70.34;99067.06;5051629;28;19927;-39
2022/07/31 02:56:56;;;;;;;;;;;;;;;25.75;69.89;99066.00;5050728;28;19920;-38
2022/07/31 02:59:22;;;;;;;;;;;;;;;25.26;71.69;99068.78;5052559;28;20424;-38
2022/07/31 03:01:47;;;;;;;;;;;;;;;25.37;68.86;99059.91;5051668;28;19920;-39
2022/07/31 03:04:12;;;;;;;;;;;;;;;24.61;72.31;99069.34;5051099;28;20018;-38
2022/07/31 03:06:38;;;;;;;;;;;;;;;25.35;69.83;99061.84;5052141;28;19920;-38
2022/07/31 03:09:03;;;;;;;;;;;;;;;25.84;67.00;99051.97;5051748;28;19962;-38
2022/07/31 03:11:28;;;;;;;;;;;;;;;25.65;67.05;99051.06;5052709;28;20285;-38
2022/07/31 03:13:53;;;;;;;;;;;;;;;25.41;68.62;99053.38;5053031;28;19947;-38
2022/07/31 03:16:19;;;;;;;;;;;;;;;25.69;68.66;99053.44;5051120;28;19927;-38
2022/07/31 03:18:44;;;;;;;;;;;;;;;25.55;68.67;99052.09;5052411;28;19920;-38
2022/07/31 03:21:10;;;;;;;;;;;;;;;25.82;67.17;99054.75;5050214;28;20004;-38
2022/07/31 03:23:35;;;;;;;;;;;;;;;25.80;67.79;99048.78;5051306;28;20350;-38
2022/07/31 03:26:01;;;;;;;;;;;;;;;25.63;69.91;99049.53;5053315;28;19916;-38
2022/07/31 03:28:27;;;;;;;;;;;;;;;25.59;69.86;99050.81;5052317;28;20042;-38
2022/07/31 03:30:52;;;;;;;;;;;;;;;25.04;70.09;99048.81;5051826;28;20389;-38
2022/07/31 03:33:17;;;;;;;;;;;;;;;25.30;70.60;99053.53;5052989;28;19970;-38
2022/07/31 03:35:42;;;;;;;;;;;;;;;25.48;69.72;99053.59;5051428;28;20337;-38
2022/07/31 03:38:08;;;;;;;;;;;;;;;25.19;71.12;99051.88;5051469;28;19932;-38
2022/07/31 03:40:33;;;;;;;;;;;;;;;24.77;73.76;99053.00;5052503;28;20373;-38
2022/07/31 03:42:59;;;;;;;;;;;;;;;25.15;72.78;99050.47;5051230;28;20856;-38
2022/07/31 03:45:24;;;;;;;;;;;;;;;24.93;73.60;99062.97;5051419;28;20644;-38
2022/07/31 03:47:49;;;;;;;;;;;;;;;25.15;73.71;99061.00;5052510;28;19931;-38
2022/07/31 03:50:15;;;;;;;;;;;;;;;25.05;74.58;99056.56;5051610;28;20179;-38
2022/07/31 03:52:40;;;;;;;;;;;;;;;25.29;74.42;99057.94;5053480;28;19931;-38
2022/07/31 03:55:06;;;;;;;;;;;;;;;25.24;73.54;99053.09;5055235;28;20301;-39
2022/07/31 03:57:31;;;;;;;;;;;;;;;25.20;75.01;99048.25;5056035;28;19942;-38
2022/07/31 03:59:57;;;;;;;;;;;;;;;24.96;75.00;99052.16;5055357;28;19964;-38
2022/07/31 04:02:25;;;;;;;;;;;;;;;24.91;76.08;99054.38;5037759;28;20173;-38
2022/07/31 04:04:51;;;;;;;;;;;;;;;24.84;75.74;99048.00;5055320;28;19920;-38
2022/07/31 04:07:16;;;;;;;;;;;;;;;25.15;75.62;99045.19;5055691;28;19926;-38
2022/07/31 04:09:42;;;;;;;;;;;;;;;24.78;75.38;99053.81;5054598;28;19986;-38
2022/07/31 04:12:07;;;;;;;;;;;;;;;24.73;76.01;99053.41;5056500;28;19978;-38
2022/07/31 04:14:32;;;;;;;;;;;;;;;25.13;73.57;99052.41;5054997;28;19963;-41
2022/07/31 04:16:57;;;;;;;;;;;;;;;25.19;74.28;99051.88;5056594;28;19920;-38
2022/07/31 04:19:23;;;;;;;;;;;;;;;25.09;73.67;99053.66;5054061;28;20361;-38
2022/07/31 04:21:49;;;;;;;;;;;;;;;25.49;73.89;99050.84;5055460;28;20452;-38
2022/07/31 04:24:16;;;;;;;;;;;;;;;24.90;73.74;99046.59;5054973;28;20305;-38
2022/07/31 04:26:42;;;;;;;;;;;;;;;24.87;75.19;99049.53;5055989;28;20311;-38
2022/07/31 04:29:07;;;;;;;;;;;;;;;24.53;75.99;99048.09;5054400;28;19989;-39
2022/07/31 04:31:33;;;;;;;;;;;;;;;24.91;75.68;99049.09;5053807;28;19924;-38
2022/07/31 04:33:58;;;;;;;;;;;;;;;25.03;75.06;99047.16;5055016;28;20031;-38
2022/07/31 04:36:23;;;;;;;;;;;;;;;24.82;74.71;99047.31;5055062;28;20015;-38
2022/07/31 04:38:48;;;;;;;;;;;;;;;24.60;75.69;99046.59;5054461;28;20000;-38
2022/07/31 04:41:16;;;;;;;;;;;;;;;24.69;75.20;99044.94;5054373;28;19985;-38
2022/07/31 04:43:41;;;;;;;;;;;;;;;25.08;75.52;99044.91;5054726;28;19928;-38
2022/07/31 04:46:06;;;;;;;;;;;;;;;24.24;75.74;99044.56;5055168;28;20710;-38
2022/07/31 04:48:31;;;;;;;;;;;;;;;24.57;77.24;99049.50;5054873;28;19967;-38
2022/07/31 04:50:57;;;;;;;;;;;;;;;23.90;76.89;99047.50;5054075;28;19924;-38
2022/07/31 04:53:22;;;;;;;;;;;;;;;24.16;79.60;99043.44;5054711;28;19925;-38
2022/07/31 04:58:33;;;;;;;;;;;;;;;24.27;77.59;99039.03;5053584;28;19982;-39
2022/07/31 05:00:59;;;;;;;;;;;;;;;24.15;78.25;99047.06;5054036;28;19927;-38
2022/07/31 05:03:24;;;;;;;;;;;;;;;24.71;77.00;99036.91;5052496;28;19924;-38
2022/07/31 05:05:49;;;;;;;;;;;;;;;24.78;74.51;99043.28;5054910;28;19916;-38
2022/07/31 05:08:14;;;;;;;;;;;;;;;25.03;74.71;99032.16;5054198;28;19943;-39
2022/07/31 05:13:24;;;;;;;;;;;;;;;25.49;72.72;99031.56;5055376;28;19954;-39
2022/07/31 05:15:49;;;;;;;;;;;;;;;25.23;74.32;99032.19;5053706;28;20007;-38
2022/07/31 05:18:14;;;;;;;;;;;;;;;24.08;77.75;99045.91;5054641;28;20007;-38
2022/07/31 05:20:39;;;;;;;;;;;;;;;24.63;76.15;99034.94;5053219;28;20043;-38
2022/07/31 05:23:04;;;;;;;;;;;;;;;24.65;76.07;99037.44;5054343;28;20027;-39
2022/07/31 05:25:30;;;;;;;;;;;;;;;24.55;76.10;99033.00;5053595;28;20095;-38
2022/07/31 05:27:55;;;;;;;;;;;;;;;25.12;75.37;99027.03;5053664;28;20011;-38
2022/07/31 05:30:20;;;;;;;;;;;;;;;24.77;76.81;99036.34;5053435;28;19958;-38
2022/07/31 05:32:45;;;;;;;;;;;;;;;24.44;78.27;99041.00;5053168;28;19960;-38
2022/07/31 05:35:10;;;;;;;;;;;;;;;24.35;77.97;99036.56;5053734;28;19955;-39
2022/07/31 05:37:36;;;;;;;;;;;;;;;25.08;75.71;99031.75;5053199;28;20013;-38
2022/07/31 05:40:01;;;;;;;;;;;;;;;24.41;79.00;99046.56;5051149;28;19929;-38
2022/07/31 05:42:26;;;;;;;;;;;;;;;25.20;76.39;99037.72;5054042;28;19916;-39
2022/07/31 05:44:51;;;;;;;;;;;;;;;25.13;76.51;99033.94;5053617;28;20354;-38
2022/07/31 05:47:17;;;;;;;;;;;;;;;24.98;77.13;99038.84;5053875;28;20021;-38
2022/07/31 05:49:42;;;;;;;;;;;;;;;25.49;75.10;99028.91;5050998;28;19968;-38
2022/07/31 05:52:07;;;;;;;;;;;;;;;24.58;77.99;99038.00;5053819;28;19966;-38
2022/07/31 05:54:32;;;;;;;;;;;;;;;25.50;75.72;99033.19;5052687;28;19959;-38
2022/07/31 05:56:57;;;;;;;;;;;;;;;25.75;74.19;99027.31;5051061;28;20087;-38
2022/07/31 05:59:23;;;;;;;;;;;;;;;24.90;76.90;99030.78;5053318;28;19920;-38
2022/07/31 06:01:48;;;;;;;;;;;;;;;25.00;77.37;99032.47;5053276;28;20095;-38
2022/07/31 06:04:14;;;;;;;;;;;;;;;25.14;76.67;99033.00;5052533;28;20035;-38
2022/07/31 06:06:39;;;;;;;;;;;;;;;25.80;74.01;99038.25;5051888;28;20019;-39
2022/07/31 06:09:04;;;;;;;;;;;;;;;25.18;76.18;99037.88;5053341;28;19966;-39
2022/07/31 06:11:29;;;;;;;;;;;;;;;25.02;76.71;99041.06;5053307;28;19920;-38
2022/07/31 06:13:55;;;;;;;;;;;;;;;25.73;75.68;99045.06;5052748;28;19948;-39
2022/07/31 06:16:20;;;;;;;;;;;;;;;25.16;74.33;99041.59;5052728;28;19941;-39
2022/07/31 06:18:45;;;;;;;;;;;;;;;26.03;73.17;99035.25;5051827;28;19931;-38
2022/07/31 06:21:11;;;;;;;;;;;;;;;25.53;76.07;99043.47;5051833;28;19927;-38
2022/07/31 06:23:36;;;;;;;;;;;;;;;25.81;77.17;99033.78;5052675;28;20020;-38
2022/07/31 06:26:01;;;;;;;;;;;;;;;25.71;76.39;99028.56;5052465;28;19920;-38
2022/07/31 06:28:26;;;;;;;;;;;;;;;25.92;75.42;99032.81;5052795;28;19924;-38
2022/07/31 06:30:52;;;;;;;;;;;;;;;26.25;74.68;99026.94;5051278;28;20901;-38
2022/07/31 06:33:17;;;;;;;;;;;;;;;26.11;73.00;99027.41;5052641;28;20593;-38
2022/07/31 06:35:42;;;;;;;;;;;;;;;26.20;75.20;99026.53;5051953;28;19924;-39
2022/07/31 06:38:07;;;;;;;;;;;;;;;26.11;75.16;99022.13;5052565;28;19920;-38
2022/07/31 06:40:32;;;;;;;;;;;;;;;26.46;73.67;99020.53;5051204;28;20029;-38
2022/07/31 06:42:58;;;;;;;;;;;;;;;26.29;72.83;99020.34;5049287;28;19924;-38
2022/07/31 06:45:23;;;;;;;;;;;;;;;26.74;71.99;99017.84;5052589;28;19916;-39
2022/07/31 06:47:48;;;;;;;;;;;;;;;26.69;72.24;99010.38;5052047;28;19931;-39
2022/07/31 06:50:14;;;;;;;;;;;;;;;27.24;70.17;99011.97;5051593;28;19928;-39
2022/07/31 06:52:40;;;;;;;;;;;;;;;27.29;67.85;99012.31;5053110;28;20011;-38
2022/07/31 06:55:05;;;;;;;;;;;;;;;27.30;68.25;99017.47;5053328;28;20901;-39
2022/07/31 06:57:31;;;;;;;;;;;;;;;27.44;69.33;99009.94;5052877;28;19952;-38
2022/07/31 06:59:56;;;;;;;;;;;;;;;27.77;66.05;99005.63;5052202;28;19917;-38
2022/07/31 07:02:21;;;;;;;;;;;;;;;27.64;67.28;99005.22;5053205;28;19923;-38
2022/07/31 07:04:46;;;;;;;;;;;;;;;27.58;65.62;99005.88;5052922;28;19959;-38
2022/07/31 07:07:12;;;;;;;;;;;;;;;27.06;68.38;99007.53;5053365;28;19916;-39
2022/07/31 07:09:37;;;;;;;;;;;;;;;27.37;66.58;99007.09;5052520;28;20253;-39
2022/07/31 07:12:02;;;;;;;;;;;;;;;27.81;66.78;98999.03;5053307;28;20322;-39
2022/07/31 07:14:27;;;;;;;;;;;;;;;27.70;67.50;99005.44;5053323;28;20684;-39
2022/07/31 07:16:53;;;;;;;;;;;;;;;27.22;65.83;99006.00;5052009;28;19959;-39
2022/07/31 07:19:18;;;;;;;;;;;;;;;27.88;66.51;99001.91;5052483;28;19952;-39
2022/07/31 07:21:43;;;;;;;;;;;;;;;28.21;63.76;99008.09;5053247;28;19917;-38
2022/07/31 07:24:08;;;;;;;;;;;;;;;28.06;66.30;99007.91;5052538;28;20441;-39
2022/07/31 07:26:34;;;;;;;;;;;;;;;28.32;64.20;98999.03;5055689;28;20241;-39
2022/07/31 07:29:00;;;;;;;;;;;;;;;28.01;64.85;99002.28;5052871;28;19924;-39
2022/07/31 07:31:25;;;;;;;;;;;;;;;28.17;65.69;99009.44;5057169;28;19935;-39
2022/07/31 07:33:51;;;;;;;;;;;;;;;28.75;61.53;99000.59;5054181;28;19924;-39
2022/07/31 07:36:16;;;;;;;;;;;;;;;28.53;61.33;99001.25;5056182;28;19965;-39
2022/07/31 07:38:42;;;;;;;;;;;;;;;29.46;59.70;98998.19;5056489;28;19917;-38
2022/07/31 07:41:07;;;;;;;;;;;;;;;29.08;60.56;98999.75;5055688;28;20419;-39
2022/07/31 07:43:32;;;;;;;;;;;;;;;29.68;61.06;99006.47;5056615;28;19921;-39
2022/07/31 07:45:57;;;;;;;;;;;;;;;30.22;57.24;99001.19;5056083;28;20385;-39
2022/07/31 07:48:22;;;;;;;;;;;;;;;29.44;58.36;98997.53;5055949;28;20384;-39
2022/07/31 07:50:48;;;;;;;;;;;;;;;29.38;57.99;98992.94;5054270;28;20381;-39
2022/07/31 07:53:13;;;;;;;;;;;;;;;28.85;60.51;99000.44;5056488;28;20883;-38
2022/07/31 07:55:38;;;;;;;;;;;;;;;29.85;58.05;98989.44;5054513;28;20284;-39
2022/07/31 07:58:04;;;;;;;;;;;;;;;30.10;57.17;98989.31;5055823;28;19917;-39
2022/07/31 08:00:29;;;;;;;;;;;;;;;29.66;57.83;98989.84;5054314;28;19928;-38
2022/07/31 08:02:54;;;;;;;;;;;;;;;29.75;58.31;98987.00;5056122;28;20236;-39
2022/07/31 08:05:19;;;;;;;;;;;;;;;30.50;55.71;98982.94;5054103;28;19921;-39
2022/07/31 08:07:45;;;;;;;;;;;;;;;29.88;55.59;98981.16;5055702;28;19924;-39
2022/07/31 08:10:11;;;;;;;;;;;;;;;29.88;55.58;98977.66;5055347;28;19946;-39
2022/07/31 08:12:36;;;;;;;;;;;;;;;30.10;55.86;98968.91;5055560;28;20035;-39
2022/07/31 08:15:01;;;;;;;;;;;;;;;30.81;55.13;98972.22;5056407;28;19951;-39
2022/07/31 08:17:27;;;;;;;;;;;;;;;29.87;58.21;98971.53;5055053;28;20707;-39
2022/07/31 08:19:52;;;;;;;;;;;;;;;29.72;60.53;98967.94;5053571;28;19920;-39
2022/07/31 08:22:17;;;;;;;;;;;;;;;29.74;58.71;98968.59;5055192;28;19920;-39
2022/07/31 08:24:43;;;;;;;;;;;;;;;30.17;58.44;98975.16;5054087;28;19928;-39
2022/07/31 08:27:23;;;;;;;;;;;;;;;30.65;53.84;98961.72;5054935;28;19931;-39
2022/07/31 08:29:49;;;;;;;;;;;;;;;30.73;53.53;98960.84;5055371;28;20397;-39
2022/07/31 08:32:14;;;;;;;;;;;;;;;30.60;52.67;98958.78;5054772;28;20020;-39
2022/07/31 08:34:39;;;;;;;;;;;;;;;30.32;55.62;98959.34;5055465;28;20096;-39
2022/07/31 08:37:05;;;;;;;;;;;;;;;31.09;52.97;98958.38;5054235;28;19924;-39
2022/07/31 08:39:31;;;;;;;;;;;;;;;31.28;53.50;98962.31;5053950;28;20800;-39
2022/07/31 08:41:56;;;;;;;;;;;;;;;30.94;54.18;98950.34;5053960;28;19917;-39
2022/07/31 08:44:21;;;;;;;;;;;;;;;31.83;51.81;98954.84;5053135;28;20747;-39
2022/07/31 08:46:46;;;;;;;;;;;;;;;31.72;50.93;98950.00;5055415;28;20639;-39
2022/07/31 08:49:12;;;;;;;;;;;;;;;32.43;50.89;98944.81;5052398;28;19916;-39
2022/07/31 08:51:37;;;;;;;;;;;;;;;31.92;49.02;98947.56;5051821;28;19920;-39
2022/07/31 08:54:07;;;;;;;;;;;;;;;31.15;54.82;98946.97;5054834;28;19931;-39
2022/07/31 08:56:36;;;;;;;;;;;;;;;30.71;55.12;98945.06;5052466;28;20033;-39
2022/07/31 08:59:01;;;;;;;;;;;;;;;32.18;50.08;98941.72;5052253;28;19920;-39
2022/07/31 09:01:27;;;;;;;;;;;;;;;32.12;47.99;98939.81;5054830;28;19962;-39
2022/07/31 09:03:53;;;;;;;;;;;;;;;32.26;48.56;98938.94;5053404;28;19969;-39
2022/07/31 09:06:18;;;;;;;;;;;;;;;33.06;46.22;98936.97;5053494;28;19969;-39
2022/07/31 09:08:43;;;;;;;;;;;;;;;33.09;46.17;98940.03;5053329;28;19924;-39
2022/07/31 09:11:10;;;;;;;;;;;;;;;32.91;46.56;98945.88;5053027;28;19916;-39
2022/07/31 09:13:35;;;;;;;;;;;;;;;33.36;45.33;98945.53;5053732;28;19963;-39
2022/07/31 09:16:01;;;;;;;;;;;;;;;33.23;45.07;98940.13;5053911;28;20086;-39
2022/07/31 09:18:26;;;;;;;;;;;;;;;32.12;49.19;98943.31;5052929;28;19986;-39
2022/07/31 09:20:55;;;;;;;;;;;;;;;31.82;53.10;98948.69;5052288;28;20009;-39
2022/07/31 09:23:21;;;;;;;;;;;;;;;31.76;51.45;98949.44;5053049;28;19916;-39
2022/07/31 09:25:50;;;;;;;;;;;;;;;31.38;52.61;98941.56;5052015;28;20755;-39
2022/07/31 09:28:15;;;;;;;;;;;;;;;31.63;52.82;98959.91;5053950;28;19966;-40
2022/07/31 09:30:41;;;;;;;;;;;;;;;31.44;51.45;98956.00;5053122;28;20312;-39
2022/07/31 09:33:16;;;;;;;;;;;;;;;31.75;49.37;98947.81;5050953;28;19932;-39
2022/07/31 09:35:48;;;;;;;;;;;;;;;31.94;51.98;98957.03;5053019;28;20538;-39
2022/07/31 09:38:13;;;;;;;;;;;;;;;32.79;50.25;98957.25;5053926;28;19955;-39
2022/07/31 09:40:42;;;;;;;;;;;;;;;31.31;54.14;98958.44;5052913;28;19916;-39
2022/07/31 09:43:13;;;;;;;;;;;;;;;32.05;52.17;98951.22;5054228;28;19928;-39
2022/07/31 09:45:38;;;;;;;;;;;;;;;31.42;54.90;98955.34;5053190;28;19916;-39
2022/07/31 09:48:03;;;;;;;;;;;;;;;32.13;52.27;98949.47;5053439;28;19920;-39
2022/07/31 09:50:28;;;;;;;;;;;;;;;32.25;52.56;98947.94;5053414;28;19916;-39
2022/07/31 09:52:58;;;;;;;;;;;;;;;32.15;55.63;98944.78;5054443;28;19993;-39
2022/07/31 09:55:23;;;;;;;;;;;;;;;32.07;54.02;98940.41;5054322;28;19921;-39
2022/07/31 09:57:55;;;;;;;;;;;;;;;32.05;55.29;98937.91;5052222;28;19916;-39
2022/07/31 10:00:21;;;;;;;;;;;;;;;31.49;55.71;98942.97;5053650;28;19920;-39
2022/07/31 10:02:46;;;;;;;;;;;;;;;31.66;55.54;98939.09;5052142;28;19962;-39
2022/07/31 10:05:11;;;;;;;;;;;;;;;31.08;59.96;98940.75;5051323;28;20015;-39
2022/07/31 10:07:36;;;;;;;;;;;;;;;32.21;53.89;98928.03;5053097;28;20003;-39
2022/07/31 10:10:03;;;;;;;;;;;;;;;32.57;52.52;98935.13;5053102;28;19959;-39
2022/07/31 10:12:29;;;;;;;;;;;;;;;32.62;54.79;98930.88;5053928;28;19970;-39
2022/07/31 10:14:54;;;;;;;;;;;;;;;31.23;60.18;98940.75;5051905;28;20479;-38
2022/07/31 10:17:22;;;;;;;;;;;;;;;33.00;54.46;98935.03;5054349;28;19916;-38
2022/07/31 10:19:47;;;;;;;;;;;;;;;30.38;66.50;98955.13;5051805;28;19917;-38
2022/07/31 10:22:12;;;;;;;;;;;;;;;29.40;75.93;98961.75;5052906;28;19927;-39
2022/07/31 10:24:39;;;;;;;;;;;;;;;30.81;69.97;98956.28;5052318;28;19916;-39
2022/07/31 10:27:04;;;;;;;;;;;;;;;29.65;74.40;98958.97;5052684;28;19920;-39
2022/07/31 10:29:30;;;;;;;;;;;;;;;30.95;72.14;98951.19;5051889;28;21154;-39
2022/07/31 10:31:55;;;;;;;;;;;;;;;31.60;65.99;98950.47;5052304;28;19963;-39
2022/07/31 10:34:20;;;;;;;;;;;;;;;31.55;66.82;98942.22;5053761;28;19920;-39
2022/07/31 10:36:45;;;;;;;;;;;;;;;31.27;64.60;98950.84;5053881;28;19928;-39
2022/07/31 10:39:14;;;;;;;;;;;;;;;31.46;64.47;98949.47;5052944;28;19917;-39
2022/07/31 10:41:48;;;;;;;;;;;;;;;32.19;62.44;98943.38;5050095;28;19963;-39
2022/07/31 10:44:25;;;;;;;;;;;;;;;30.69;68.81;98951.56;5052355;28;20441;-39
2022/07/31 10:46:51;;;;;;;;;;;;;;;31.37;65.79;98947.06;5053920;28;19997;-39
2022/07/31 10:49:16;;;;;;;;;;;;;;;29.63;75.25;98950.38;5052818;28;19932;-39
2022/07/31 10:51:48;;;;;;;;;;;;;;;29.83;76.75;98945.50;5053830;28;19916;-39
2022/07/31 10:54:14;;;;;;;;;;;;;;;29.78;72.49;98953.97;5053610;28;19920;-39
2022/07/31 10:56:43;;;;;;;;;;;;;;;29.92;74.75;98955.88;5048218;28;19925;-39
2022/07/31 10:59:09;;;;;;;;;;;;;;;31.02;71.12;98952.13;5050936;28;19931;-39
2022/07/31 11:01:44;;;;;;;;;;;;;;;30.32;68.90;98948.69;5053333;28;19974;-39
2022/07/31 11:04:09;;;;;;;;;;;;;;;31.08;69.01;98951.38;5056262;28;19921;-39
2022/07/31 11:06:39;;;;;;;;;;;;;;;31.90;61.56;98945.09;5056999;28;19917;-39
2022/07/31 11:09:04;;;;;;;;;;;;;;;31.05;66.89;98946.44;5054110;28;19937;-39
2022/07/31 11:11:30;;;;;;;;;;;;;;;30.93;65.92;98947.88;5056195;28;20541;-39
2022/07/31 11:13:55;;;;;;;;;;;;;;;31.50;64.97;98947.28;5038704;28;19916;-39
2022/07/31 11:16:21;;;;;;;;;;;;;;;31.83;58.98;98942.34;5037786;28;19920;-39
2022/07/31 11:18:59;;;;;;;;;;;;;;;31.09;58.21;98941.56;5055485;28;19917;-39
2022/07/31 11:21:34;;;;;;;;;;;;;;;31.56;58.87;98938.53;5056041;28;19958;-39
2022/07/31 11:23:59;;;;;;;;;;;;;;;30.25;60.67;98942.41;5042791;28;20405;-39
2022/07/31 11:26:24;;;;;;;;;;;;;;;30.74;64.09;98941.22;5051414;28;19978;-39
2022/07/31 11:28:50;;;;;;;;;;;;;;;31.22;60.21;98937.25;5052681;28;19924;-39
2022/07/31 11:31:15;;;;;;;;;;;;;;;31.81;55.82;98930.22;5054684;28;19917;-39
2022/07/31 11:33:44;;;;;;;;;;;;;;;31.10;56.20;98938.72;5054171;28;20494;-39
2022/07/31 11:36:14;;;;;;;;;;;;;;;31.09;55.47;98942.41;5055816;28;19916;-39
2022/07/31 11:38:40;;;;;;;;;;;;;;;30.96;59.16;98936.88;5051649;28;20416;-39
2022/07/31 11:41:05;;;;;;;;;;;;;;;32.30;55.14;98934.88;5053261;28;19966;-39
2022/07/31 11:43:33;;;;;;;;;;;;;;;32.39;55.15;98933.72;5053912;28;19996;-39
2022/07/31 11:45:59;;;;;;;;;;;;;;;32.41;52.77;98926.38;5037516;28;19947;-39
2022/07/31 11:48:25;;;;;;;;;;;;;;;31.61;55.30;98930.84;5043103;28;20896;-39
2022/07/31 11:50:50;;;;;;;;;;;;;;;31.55;54.62;98918.28;5054214;28;19997;-39
2022/07/31 11:53:17;;;;;;;;;;;;;;;32.75;50.65;98911.47;5052927;28;20747;-39
2022/07/31 11:55:58;;;;;;;;;;;;;;;31.36;57.72;98927.63;5055350;28;19917;-39
2022/07/31 11:58:23;;;;;;;;;;;;;;;31.37;58.97;98923.13;5053139;28;19934;-39
2022/07/31 12:00:57;;;;;;;;;;;;;;;32.21;55.54;98910.19;5054580;28;19920;-39
2022/07/31 12:03:23;;;;;;;;;;;;;;;32.96;50.60;98909.75;5053406;28;19951;-39
2022/07/31 12:05:51;;;;;;;;;;;;;;;32.41;51.78;98913.03;5053482;28;20623;-39
2022/07/31 12:08:16;;;;;;;;;;;;;;;31.54;50.96;98913.94;5053891;28;19924;-39
2022/07/31 12:10:41;;;;;;;;;;;;;;;33.13;49.00;98909.28;5051324;28;19971;-39
2022/07/31 12:13:25;;;;;;;;;;;;;;;32.88;49.83;98906.22;5055225;28;19916;-39
2022/07/31 12:15:53;;;;;;;;;;;;;;;32.13;52.23;98917.50;5052661;28;20849;-39
2022/07/31 12:18:18;;;;;;;;;;;;;;;31.95;51.23;98915.22;5053941;28;19950;-39
2022/07/31 12:20:50;;;;;;;;;;;;;;;33.07;51.61;98909.25;5053221;28;19924;-39
2022/07/31 12:23:15;;;;;;;;;;;;;;;32.49;51.74;98912.88;5052955;28;20012;-39
2022/07/31 12:25:41;;;;;;;;;;;;;;;33.50;50.01;98909.03;5049527;28;19926;-39
2022/07/31 12:28:07;;;;;;;;;;;;;;;33.02;50.96;98906.31;5053244;28;19920;-39
2022/07/31 12:30:32;;;;;;;;;;;;;;;32.79;50.85;98902.06;5051050;28;19928;-39
2022/07/31 12:33:05;;;;;;;;;;;;;;;32.52;53.94;98913.56;5054237;28;20625;-39
2022/07/31 12:35:34;;;;;;;;;;;;;;;32.02;55.46;98917.00;5051981;28;20004;-39
2022/07/31 12:37:59;;;;;;;;;;;;;;;32.37;56.64;98914.44;5054101;28;19917;-39
2022/07/31 12:40:25;;;;;;;;;;;;;;;33.93;48.97;98903.44;5053450;28;19965;-39
2022/07/31 12:42:51;;;;;;;;;;;;;;;32.99;48.41;98901.38;5052347;28;20003;-39
2022/07/31 12:45:26;;;;;;;;;;;;;;;33.75;48.57;98907.50;5051616;28;19935;-39
2022/07/31 12:47:52;;;;;;;;;;;;;;;32.26;51.93;98913.09;5053524;28;20666;-39